createdAt,value
2023-01-30T00:01:45.102Z,33.30
2023-01-30T00:04:13.898Z,32.55
2023-01-30T00:06:42.261Z,32.83
2023-01-30T00:09:13.789Z,33.13
2023-01-30T00:11:40.673Z,34.40
2023-01-30T00:14:07.636Z,32.97
2023-01-30T00:16:34.822Z,32.95
2023-01-30T00:19:01.646Z,31.20
2023-01-30T00:21:28.431Z,32.95
2023-01-30T00:23:55.176Z,35.00
2023-01-30T00:26:21.944Z,31.98
2023-01-30T00:28:48.766Z,34.58
2023-01-30T00:31:15.555Z,35.95
2023-01-30T00:33:42.324Z,33.88
2023-01-30T00:36:10.407Z,34.80
2023-01-30T00:38:37.422Z,35.97
2023-01-30T00:41:04.599Z,34.30
2023-01-30T00:43:49.795Z,35.63
2023-01-30T00:46:51.541Z,35.05
2023-01-30T00:49:18.940Z,33.95
2023-01-30T00:51:46.007Z,34.90
2023-01-30T00:54:12.931Z,35.92
2023-01-30T00:56:39.724Z,34.92
2023-01-30T00:59:06.471Z,35.72
2023-01-30T01:01:33.381Z,36.10
2023-01-30T01:04:00.132Z,36.42
2023-01-30T01:06:27.014Z,37.55
2023-01-30T01:08:53.803Z,36.53
2023-01-30T01:11:26.876Z,38.13
2023-01-30T01:13:55.463Z,35.22
2023-01-30T01:16:23.168Z,35.90
2023-01-30T01:18:50.841Z,37.97
2023-01-30T01:21:20.230Z,37.45
2023-01-30T01:23:56.024Z,38.55
2023-01-30T01:26:23.100Z,36.75
2023-01-30T01:28:50.017Z,39.22
2023-01-30T01:31:17.595Z,39.08
2023-01-30T01:33:44.543Z,39.08
2023-01-30T01:36:12.260Z,37.45
2023-01-30T01:38:42.437Z,39.22
2023-01-30T01:41:11.999Z,36.67
2023-01-30T01:44:09.145Z,35.33
2023-01-30T01:46:52.644Z,36.40
2023-01-30T01:49:33.291Z,38.10
2023-01-30T01:52:11.622Z,35.75
2023-01-30T01:55:01.362Z,36.95
2023-01-30T01:57:31.059Z,36.22
2023-01-30T02:00:02.009Z,34.80
2023-01-30T02:02:28.886Z,35.72
2023-01-30T02:05:04.592Z,36.65
2023-01-30T02:07:57.690Z,37.10
2023-01-30T02:10:32.194Z,36.47
2023-01-30T02:12:58.939Z,35.92
2023-01-30T02:15:25.785Z,33.78
2023-01-30T02:17:52.599Z,34.05
2023-01-30T02:20:37.713Z,34.03
2023-01-30T02:23:29.067Z,32.80
2023-01-30T02:26:37.837Z,34.80
2023-01-30T02:29:42.345Z,33.38
2023-01-30T02:32:36.838Z,35.58
2023-01-30T02:35:41.814Z,35.47
2023-01-30T02:38:46.123Z,34.80
2023-01-30T02:41:24.935Z,37.83
2023-01-30T02:44:11.303Z,36.45
2023-01-30T02:47:02.146Z,37.72
2023-01-30T02:49:52.754Z,39.15
2023-01-30T02:52:21.734Z,36.58
2023-01-30T02:54:48.557Z,39.15
2023-01-30T02:57:24.212Z,40.05
2023-01-30T02:59:55.773Z,42.65
2023-01-30T03:02:34.488Z,42.70
2023-01-30T03:05:37.963Z,41.17
2023-01-30T03:08:16.737Z,42.03
2023-01-30T03:11:00.881Z,42.47
2023-01-30T03:13:35.862Z,31.43
2023-01-30T03:16:28.279Z,40.28
2023-01-30T03:18:55.284Z,38.65
2023-01-30T03:21:22.021Z,38.85
2023-01-30T03:23:48.870Z,37.75
2023-01-30T03:26:20.209Z,38.75
2023-01-30T03:28:50.065Z,38.53
2023-01-30T03:31:17.055Z,39.50
2023-01-30T03:33:43.870Z,39.38
2023-01-30T03:36:11.053Z,37.17
2023-01-30T03:38:37.918Z,38.63
2023-01-30T03:41:05.723Z,35.63
2023-01-30T03:43:32.516Z,33.75
2023-01-30T03:45:59.246Z,36.38
2023-01-30T03:48:26.110Z,33.80
2023-01-30T03:50:52.905Z,34.50
2023-01-30T03:53:19.832Z,33.17
2023-01-30T03:55:46.624Z,33.00
2023-01-30T03:58:13.469Z,30.48
2023-01-30T04:00:40.248Z,31.42
2023-01-30T04:03:07.651Z,29.60
2023-01-30T04:05:34.406Z,30.02
2023-01-30T04:08:01.164Z,29.33
2023-01-30T04:10:28.097Z,30.88
2023-01-30T04:12:55.013Z,28.60
2023-01-30T04:15:21.878Z,29.55
2023-01-30T04:17:48.632Z,30.13
2023-01-30T04:20:15.904Z,29.33
2023-01-30T04:22:42.745Z,30.52
2023-01-30T04:25:09.730Z,27.88
2023-01-30T04:27:36.534Z,27.33
2023-01-30T04:30:04.592Z,27.23
2023-01-30T04:32:31.434Z,26.92
2023-01-30T04:34:58.230Z,27.38
2023-01-30T04:37:25.266Z,27.60
2023-01-30T04:39:52.120Z,26.35
2023-01-30T04:42:18.910Z,27.58
2023-01-30T04:44:45.694Z,25.30
2023-01-30T04:47:12.564Z,25.42
2023-01-30T04:49:39.434Z,25.20
2023-01-30T04:52:06.497Z,24.42
2023-01-30T04:54:33.515Z,23.80
2023-01-30T04:57:00.431Z,22.35
2023-01-30T04:59:27.206Z,20.80
2023-01-30T05:01:55.409Z,23.17
2023-01-30T05:04:22.251Z,22.25
2023-01-30T05:06:49.035Z,21.20
2023-01-30T05:09:15.867Z,21.70
2023-01-30T05:11:42.710Z,21.77
2023-01-30T05:14:09.527Z,21.80
2023-01-30T05:16:36.283Z,21.42
2023-01-30T05:19:03.095Z,20.77
2023-01-30T05:21:29.903Z,20.35
2023-01-30T05:23:57.854Z,18.17
2023-01-30T05:26:25.107Z,18.65
2023-01-30T05:28:54.048Z,16.85
2023-01-30T05:31:21.081Z,17.00
2023-01-30T05:33:50.405Z,14.18
2023-01-30T05:36:19.186Z,15.05
2023-01-30T05:38:46.771Z,13.48
2023-01-30T05:41:15.333Z,12.95
2023-01-30T05:43:42.335Z,11.98
2023-01-30T05:46:11.446Z,11.02
2023-01-30T05:48:38.268Z,11.57
2023-01-30T05:51:05.264Z,11.55
2023-01-30T05:53:37.204Z,11.02
2023-01-30T05:56:05.668Z,11.85
2023-01-30T05:58:33.463Z,11.30
2023-01-30T06:01:02.202Z,11.30
2023-01-30T06:03:29.579Z,10.88
2023-01-30T06:05:56.515Z,10.43
2023-01-30T06:08:24.022Z,9.00
2023-01-30T06:10:50.821Z,8.15
2023-01-30T06:13:17.686Z,8.30
2023-01-30T06:15:44.479Z,7.95
2023-01-30T06:18:11.436Z,7.22
2023-01-30T06:20:38.215Z,7.22
2023-01-30T06:23:05.008Z,6.97
2023-01-30T06:25:31.862Z,6.35
2023-01-30T06:27:58.617Z,6.35
2023-01-30T06:30:25.447Z,6.45
2023-01-30T06:32:52.400Z,6.40
2023-01-30T06:35:19.803Z,7.68
2023-01-30T06:37:46.977Z,7.70
2023-01-30T06:40:14.101Z,6.60
2023-01-30T06:42:48.490Z,7.22
2023-01-30T06:45:19.495Z,7.40
2023-01-30T06:47:48.199Z,7.22
2023-01-30T06:50:16.105Z,7.10
2023-01-30T06:52:47.249Z,7.00
2023-01-30T06:55:16.841Z,6.80
2023-01-30T06:57:45.325Z,6.18
2023-01-30T07:00:20.245Z,6.20
2023-01-30T07:02:47.887Z,5.88
2023-01-30T07:05:14.721Z,5.10
2023-01-30T07:07:41.983Z,5.38
2023-01-30T07:10:12.059Z,4.80
2023-01-30T07:12:39.274Z,5.05
2023-01-30T07:15:07.156Z,4.63
2023-01-30T07:17:34.136Z,5.18
2023-01-30T07:20:00.963Z,5.13
2023-01-30T07:22:27.721Z,4.60
2023-01-30T07:24:54.564Z,4.22
2023-01-30T07:27:21.284Z,4.47
2023-01-30T07:29:48.041Z,4.38
2023-01-30T07:32:19.902Z,3.88
2023-01-30T07:34:47.252Z,3.58
2023-01-30T07:37:14.291Z,4.45
2023-01-30T07:39:41.692Z,4.35
2023-01-30T07:42:08.715Z,4.13
2023-01-30T07:44:35.637Z,4.72
2023-01-30T07:47:02.504Z,4.55
2023-01-30T07:49:29.761Z,3.78
2023-01-30T07:51:56.528Z,4.30
2023-01-30T07:54:23.453Z,4.78
2023-01-30T07:56:50.304Z,3.80
2023-01-30T07:59:17.120Z,4.15
2023-01-30T08:01:43.929Z,3.78
2023-01-30T08:04:10.778Z,3.20
2023-01-30T08:06:39.595Z,3.88
2023-01-30T08:09:07.465Z,4.43
2023-01-30T08:11:35.020Z,3.63
2023-01-30T08:14:02.578Z,3.70
2023-01-30T08:16:32.183Z,4.85
2023-01-30T08:18:59.333Z,4.78
2023-01-30T08:21:26.198Z,4.40
2023-01-30T08:23:52.990Z,4.22
2023-01-30T08:26:19.776Z,4.80
2023-01-30T08:28:46.588Z,3.53
2023-01-30T08:31:15.491Z,4.30
2023-01-30T08:33:42.396Z,4.47
2023-01-30T08:36:09.943Z,3.58
2023-01-30T08:38:36.927Z,3.50
2023-01-30T08:41:08.282Z,4.20
2023-01-30T08:43:35.587Z,4.32
2023-01-30T08:46:02.724Z,4.20
2023-01-30T08:48:34.120Z,4.60
2023-01-30T08:51:07.093Z,3.58
2023-01-30T08:53:33.994Z,4.78
2023-01-30T08:56:00.935Z,3.67
2023-01-30T08:58:27.668Z,4.00
2023-01-30T09:00:54.491Z,3.58
2023-01-30T09:03:21.418Z,4.03
2023-01-30T09:05:53.744Z,4.55
2023-01-30T09:08:20.560Z,4.10
2023-01-30T09:10:47.480Z,4.68
2023-01-30T09:13:14.389Z,4.15
2023-01-30T09:15:43.456Z,5.13
2023-01-30T09:18:10.301Z,4.10
2023-01-30T09:20:38.870Z,4.25
2023-01-30T09:23:05.652Z,4.35
2023-01-30T09:25:33.484Z,3.65
2023-01-30T09:28:00.315Z,3.35
2023-01-30T09:30:27.223Z,4.28
2023-01-30T09:32:54.178Z,4.68
2023-01-30T09:35:21.079Z,4.43
2023-01-30T09:37:53.486Z,3.85
2023-01-30T09:40:32.619Z,3.33
2023-01-30T09:43:13.577Z,4.15
2023-01-30T09:45:45.009Z,3.95
2023-01-30T09:48:29.581Z,4.50
2023-01-30T09:51:00.252Z,4.65
2023-01-30T09:54:00.234Z,4.82
2023-01-30T09:56:27.962Z,5.30
2023-01-30T09:59:01.429Z,3.90
2023-01-30T10:01:31.970Z,4.22
2023-01-30T10:04:10.084Z,5.25
2023-01-30T10:06:47.060Z,4.28
2023-01-30T10:09:49.866Z,4.85
2023-01-30T10:12:38.794Z,3.88
2023-01-30T10:15:14.873Z,3.90
2023-01-30T10:18:07.963Z,4.00
2023-01-30T10:20:40.699Z,4.68
2023-01-30T10:23:29.133Z,4.72
2023-01-30T10:26:01.458Z,3.55
2023-01-30T10:28:37.584Z,3.55
2023-01-30T10:31:10.081Z,3.00
2023-01-30T10:33:57.890Z,3.10
2023-01-30T10:36:57.721Z,2.80
2023-01-30T10:39:35.346Z,3.67
2023-01-30T10:42:13.046Z,4.43
2023-01-30T10:44:42.960Z,4.38
2023-01-30T10:47:46.797Z,3.80
2023-01-30T10:50:18.825Z,5.22
2023-01-30T10:53:10.709Z,4.43
2023-01-30T10:55:48.451Z,4.47
2023-01-30T10:58:28.818Z,4.63
2023-01-30T11:01:01.654Z,4.57
2023-01-30T11:06:26.264Z,3.63
2023-01-30T11:08:54.668Z,4.82
2023-01-30T11:11:30.647Z,4.07
2023-01-30T11:14:08.276Z,4.53
2023-01-30T11:16:45.085Z,4.88
2023-01-30T11:19:21.920Z,4.45
2023-01-30T11:22:00.524Z,4.78
2023-01-30T11:24:38.415Z,3.83
2023-01-30T11:27:21.532Z,3.70
2023-01-30T11:29:50.320Z,3.95
2023-01-30T11:32:28.582Z,4.55
2023-01-30T11:35:07.621Z,4.90
2023-01-30T11:37:38.439Z,4.43
2023-01-30T11:40:21.528Z,4.25
2023-01-30T11:42:51.630Z,3.70
2023-01-30T11:45:19.672Z,4.38
2023-01-30T11:48:03.877Z,4.47
2023-01-30T11:53:25.175Z,4.00
2023-01-30T11:56:15.950Z,2.83
2023-01-30T11:58:46.346Z,4.55
2023-01-30T12:01:14.893Z,3.78
2023-01-30T12:03:55.654Z,3.30
2023-01-30T12:06:34.062Z,3.75
2023-01-30T12:09:01.351Z,3.63
2023-01-30T12:11:56.999Z,3.15
2023-01-30T12:14:40.650Z,3.17
2023-01-30T12:17:23.693Z,3.35
2023-01-30T12:20:26.348Z,3.15
2023-01-30T12:22:56.011Z,3.65
2023-01-30T12:25:26.927Z,2.83
2023-01-30T12:28:03.753Z,3.35
2023-01-30T12:30:42.424Z,3.53
2023-01-30T12:36:01.684Z,3.60
2023-01-30T12:38:34.441Z,3.85
2023-01-30T12:41:19.609Z,3.10
2023-01-30T12:43:54.174Z,2.85
2023-01-30T12:46:48.792Z,2.67
2023-01-30T12:49:37.980Z,2.40
2023-01-30T12:52:18.267Z,3.33
2023-01-30T12:55:18.982Z,2.35
2023-01-30T12:58:16.238Z,3.08
2023-01-30T13:01:14.300Z,2.67
2023-01-30T13:03:59.150Z,3.13
2023-01-30T13:06:38.326Z,3.38
2023-01-30T13:09:33.220Z,2.92
2023-01-30T13:12:19.043Z,3.78
2023-01-30T13:14:57.110Z,3.35
2023-01-30T13:17:23.874Z,3.08
2023-01-30T13:20:06.106Z,2.47
2023-01-30T13:23:05.340Z,3.30
2023-01-30T13:25:51.638Z,2.65
2023-01-30T13:28:25.900Z,2.50
2023-01-30T13:30:55.743Z,3.35
2023-01-30T13:33:25.575Z,2.45
2023-01-30T13:36:19.675Z,2.95
2023-01-30T13:39:15.443Z,3.25
2023-01-30T13:41:55.289Z,3.78
2023-01-30T13:44:33.539Z,2.80
2023-01-30T13:47:18.168Z,3.20
2023-01-30T13:50:00.018Z,2.30
2023-01-30T13:52:52.276Z,3.30
2023-01-30T13:55:31.080Z,3.90
2023-01-30T13:58:30.228Z,3.08
2023-01-30T14:00:57.380Z,3.00
2023-01-30T14:03:33.758Z,2.97
2023-01-30T14:06:03.837Z,2.78
2023-01-30T14:08:50.579Z,3.13
2023-01-30T14:11:37.887Z,3.40
2023-01-30T14:14:20.619Z,2.70
2023-01-30T14:16:53.566Z,3.05
2023-01-30T14:19:34.604Z,3.00
2023-01-30T14:22:22.016Z,3.33
2023-01-30T14:25:25.420Z,2.97
2023-01-30T14:28:05.312Z,3.28
2023-01-30T14:30:32.121Z,2.90
2023-01-30T14:33:00.814Z,3.10
2023-01-30T14:35:32.547Z,3.25
2023-01-30T14:38:13.523Z,3.40
2023-01-30T14:40:46.158Z,3.15
2023-01-30T14:43:13.099Z,2.83
2023-01-30T14:45:57.625Z,3.10
2023-01-30T14:48:39.591Z,3.40
2023-01-30T14:51:28.117Z,3.15
2023-01-30T14:54:17.288Z,2.63
2023-01-30T14:56:56.482Z,2.95
2023-01-30T14:59:28.068Z,3.30
2023-01-30T15:02:09.699Z,3.00
2023-01-30T15:04:44.775Z,2.85
2023-01-30T15:09:40.039Z,3.22
2023-01-30T15:12:38.175Z,3.13
2023-01-30T15:15:17.175Z,2.78
2023-01-30T15:18:06.047Z,4.13
2023-01-30T15:20:57.653Z,3.75
2023-01-30T15:23:40.271Z,3.88
2023-01-30T15:26:18.442Z,3.35
2023-01-30T15:29:10.353Z,3.83
2023-01-30T15:31:37.240Z,4.00
2023-01-30T15:34:19.121Z,3.60
2023-01-30T15:36:48.741Z,4.30
2023-01-30T15:39:22.010Z,4.03
2023-01-30T15:41:49.600Z,3.85
2023-01-30T15:44:56.690Z,4.03
2023-01-30T15:47:59.860Z,3.22
2023-01-30T15:50:26.739Z,3.55
2023-01-30T15:52:56.556Z,3.85
2023-01-30T15:55:31.234Z,4.38
2023-01-30T15:58:05.159Z,3.92
2023-01-30T16:00:34.970Z,4.82
2023-01-30T16:03:03.611Z,3.55
2023-01-30T16:05:31.055Z,3.80
2023-01-30T16:07:59.145Z,4.18
2023-01-30T16:10:28.859Z,3.95
2023-01-30T16:12:57.938Z,4.05
2023-01-30T16:15:56.938Z,4.20
2023-01-30T16:18:41.604Z,3.83
2023-01-30T16:21:17.706Z,2.90
2023-01-30T16:23:53.762Z,3.38
2023-01-30T16:26:21.976Z,4.15
2023-01-30T16:28:51.101Z,3.45
2023-01-30T16:31:25.936Z,4.30
2023-01-30T16:33:53.136Z,3.67
2023-01-30T16:36:19.920Z,3.67
2023-01-30T16:38:51.617Z,3.42
2023-01-30T16:41:40.309Z,4.43
2023-01-30T16:44:18.375Z,4.05
2023-01-30T16:46:47.194Z,4.53
2023-01-30T16:49:23.327Z,4.68
2023-01-30T16:51:58.956Z,4.20
2023-01-30T16:54:30.147Z,4.00
2023-01-30T16:56:59.298Z,4.57
2023-01-30T16:59:34.165Z,3.63
2023-01-30T17:02:06.898Z,4.50
2023-01-30T17:04:40.368Z,4.32
2023-01-30T17:07:07.742Z,4.07
2023-01-30T17:09:44.708Z,5.63
2023-01-30T17:12:26.961Z,4.05
2023-01-30T17:15:12.137Z,3.95
2023-01-30T17:17:39.790Z,4.28
2023-01-30T17:20:08.299Z,4.60
2023-01-30T17:22:55.607Z,3.92
2023-01-30T17:25:29.591Z,4.15
2023-01-30T17:27:57.381Z,4.25
2023-01-30T17:30:25.054Z,4.05
2023-01-30T17:32:51.983Z,3.90
2023-01-30T17:35:19.469Z,3.85
2023-01-30T17:37:59.743Z,3.70
2023-01-30T17:40:37.479Z,3.30
2023-01-30T17:43:05.315Z,4.38
2023-01-30T17:45:32.754Z,4.07
2023-01-30T17:48:02.467Z,4.28
2023-01-30T17:50:32.776Z,4.20
2023-01-30T17:53:03.134Z,4.70
2023-01-30T17:55:32.421Z,4.45
2023-01-30T17:58:02.457Z,4.07
2023-01-30T18:00:29.554Z,4.40
2023-01-30T18:02:56.350Z,5.05
2023-01-30T18:05:23.312Z,4.40
2023-01-30T18:07:50.240Z,4.95
2023-01-30T18:10:19.877Z,4.93
2023-01-30T18:12:47.128Z,4.80
2023-01-30T18:15:15.866Z,4.70
2023-01-30T18:17:47.397Z,5.05
2023-01-30T18:20:17.301Z,3.65
2023-01-30T18:22:47.027Z,5.00
2023-01-30T18:25:14.996Z,5.00
2023-01-30T18:27:44.253Z,4.43
2023-01-30T18:30:17.435Z,5.00
2023-01-30T18:32:54.019Z,4.32
2023-01-30T18:35:22.488Z,4.32
2023-01-30T18:37:50.007Z,4.93
2023-01-30T18:40:18.094Z,4.28
2023-01-30T18:42:45.266Z,4.50
2023-01-30T18:45:12.440Z,4.88
2023-01-30T18:47:39.558Z,4.93
2023-01-30T18:50:06.875Z,4.78
2023-01-30T18:52:33.672Z,4.35
2023-01-30T18:55:01.653Z,4.43
2023-01-30T18:57:28.605Z,6.35
2023-01-30T18:59:55.402Z,4.90
2023-01-30T19:02:22.285Z,4.57
2023-01-30T19:04:49.138Z,5.13
2023-01-30T19:07:16.631Z,4.88
2023-01-30T19:09:43.502Z,5.95
2023-01-30T19:12:29.528Z,5.32
2023-01-30T19:14:56.412Z,5.10
2023-01-30T19:17:24.164Z,5.68
2023-01-30T19:19:51.023Z,5.72
2023-01-30T19:22:18.256Z,4.50
2023-01-30T19:24:45.359Z,6.13
2023-01-30T19:27:13.988Z,5.45
2023-01-30T19:29:41.955Z,5.15
2023-01-30T19:32:09.811Z,5.82
2023-01-30T19:34:38.433Z,4.63
2023-01-30T19:37:06.016Z,5.18
2023-01-30T19:39:33.160Z,4.88
2023-01-30T19:42:00.172Z,5.70
2023-01-30T19:44:27.027Z,5.53
2023-01-30T19:46:54.480Z,5.22
2023-01-30T19:49:21.598Z,5.70
2023-01-30T19:51:48.664Z,6.30
2023-01-30T19:54:16.217Z,4.57
2023-01-30T19:56:47.485Z,5.28
2023-01-30T19:59:16.142Z,4.80
2023-01-30T20:01:43.299Z,5.10
2023-01-30T20:04:10.747Z,4.70
2023-01-30T20:06:46.763Z,4.43
2023-01-30T20:09:16.299Z,5.22
2023-01-30T20:11:43.466Z,5.07
2023-01-30T20:14:11.555Z,4.88
2023-01-30T20:16:39.585Z,5.47
2023-01-30T20:19:25.077Z,4.53
2023-01-30T20:24:21.022Z,5.07
2023-01-30T20:26:48.663Z,3.92
2023-01-30T20:29:17.631Z,4.18
2023-01-30T20:31:44.622Z,4.38
2023-01-30T20:34:13.313Z,4.55
2023-01-30T20:36:40.737Z,4.70
2023-01-30T20:39:08.557Z,5.28
2023-01-30T20:41:37.703Z,5.10
2023-01-30T20:44:06.895Z,3.80
2023-01-30T20:46:42.621Z,4.68
2023-01-30T20:49:14.056Z,4.40
2023-01-30T20:51:41.207Z,4.72
2023-01-30T20:54:10.333Z,4.60
2023-01-30T20:56:40.280Z,4.47
2023-01-30T20:59:08.978Z,4.10
2023-01-30T21:01:37.423Z,4.78
2023-01-30T21:04:10.288Z,5.25
2023-01-30T21:06:43.531Z,5.15
2023-01-30T21:09:15.399Z,6.10
2023-01-30T21:11:42.584Z,5.28
2023-01-30T21:14:09.716Z,5.32
2023-01-30T21:16:37.150Z,5.13
2023-01-30T21:19:06.896Z,4.22
2023-01-30T21:21:41.070Z,3.83
2023-01-30T21:24:13.000Z,4.45
2023-01-30T21:26:42.728Z,4.90
2023-01-30T21:29:10.971Z,3.45
2023-01-30T21:31:39.521Z,4.13
2023-01-30T21:34:07.848Z,4.68
2023-01-30T21:36:34.672Z,4.10
2023-01-30T21:39:20.119Z,4.95
2023-01-30T21:44:48.147Z,4.72
2023-01-30T21:47:14.954Z,4.20
2023-01-30T21:49:44.050Z,4.07
2023-01-30T21:52:10.912Z,5.20
2023-01-30T21:54:37.816Z,4.20
2023-01-30T21:57:04.741Z,3.97
2023-01-30T21:59:34.552Z,4.47
2023-01-30T22:02:01.552Z,4.20
2023-01-30T22:04:28.453Z,4.75
2023-01-30T22:06:55.645Z,4.25
2023-01-30T22:09:22.663Z,4.88
2023-01-30T22:11:49.541Z,4.25
2023-01-30T22:14:16.361Z,4.40
2023-01-30T22:16:43.328Z,7.65
2023-01-30T22:19:10.237Z,4.75
2023-01-30T22:21:38.871Z,4.63
2023-01-30T22:24:08.355Z,5.07
2023-01-30T22:26:36.435Z,4.85
2023-01-30T22:29:04.875Z,5.10
2023-01-30T22:31:34.804Z,5.32
2023-01-30T22:34:02.842Z,4.93
2023-01-30T22:36:31.953Z,4.47
2023-01-30T22:38:58.854Z,5.82
2023-01-30T22:41:27.388Z,4.38
2023-01-30T22:43:56.251Z,5.13
2023-01-30T22:46:26.402Z,4.93
2023-01-30T22:48:54.237Z,4.40
2023-01-30T22:51:25.677Z,4.75
2023-01-30T22:54:01.470Z,4.45
2023-01-30T22:56:30.712Z,5.38
2023-01-30T22:58:57.633Z,3.88
2023-01-30T23:01:27.042Z,3.78
2023-01-30T23:04:00.144Z,4.72
2023-01-30T23:06:27.746Z,4.30
2023-01-30T23:08:55.687Z,3.47
2023-01-30T23:11:26.948Z,4.57
2023-01-30T23:13:56.343Z,4.47
2023-01-30T23:16:26.167Z,4.07
2023-01-30T23:18:56.736Z,3.30
2023-01-30T23:21:31.764Z,4.38
2023-01-30T23:26:30.311Z,3.90
2023-01-30T23:28:57.309Z,4.80
2023-01-30T23:31:26.274Z,4.35
2023-01-30T23:33:54.747Z,4.10
2023-01-30T23:36:21.914Z,4.32
2023-01-30T23:38:53.608Z,3.90
2023-01-30T23:41:23.698Z,5.57
2023-01-30T23:43:51.204Z,4.93
2023-01-30T23:46:21.112Z,4.63
2023-01-30T23:48:51.189Z,4.13
2023-01-30T23:51:19.911Z,4.50
2023-01-30T23:53:47.482Z,4.40
2023-01-30T23:56:15.378Z,4.68
2023-01-30T23:58:43.055Z,4.60
